Time;durP1;ratioP1;P1;durP2;ratioP2;P2;SDS_P1;SDS_P2;PMS_P1;PMS_P2;Temp;Humidity;BMP_temperature;BMP_pressure;BME280_temperature;BME280_humidity;BME280_pressure;Samples;Min_cycle;Max_cycle;Signal;HPM_P1;HPM_P2
2022/05/06 00:01:35;;;;;;;4.20;3.85;;;10.00;99.90;;;;;;7376256;19;20337;-77
2022/05/06 00:04:02;;;;;;;4.32;3.92;;;10.00;99.90;;;;;;7375664;19;20361;-76
2022/05/06 00:06:29;;;;;;;3.80;3.50;;;9.80;99.90;;;;;;7378359;19;20888;-77
2022/05/06 00:08:55;;;;;;;3.92;3.53;;;9.80;99.90;;;;;;7381897;19;20403;-76
2022/05/06 00:11:21;;;;;;;3.50;3.30;;;9.80;99.90;;;;;;7379421;19;20348;-77
2022/05/06 00:13:48;;;;;;;4.28;3.88;;;9.80;99.90;;;;;;7378299;19;20345;-76
2022/05/06 00:16:15;;;;;;;6.30;4.00;;;9.80;99.90;;;;;;7376200;19;20336;-77
2022/05/06 00:18:40;;;;;;;4.43;4.03;;;9.70;99.90;;;;;;7379834;19;20339;-76
2022/05/06 00:21:06;;;;;;;4.23;3.83;;;9.70;99.90;;;;;;7375650;19;20866;-77
2022/05/06 00:23:35;;;;;;;4.00;3.63;;;9.80;99.90;;;;;;7377371;19;21176;-77
2022/05/06 00:26:03;;;;;;;5.05;4.20;;;9.60;99.90;;;;;;7376298;19;20324;-76
2022/05/06 00:28:29;;;;;;;5.03;4.23;;;9.60;99.90;;;;;;7376797;19;20352;-77
2022/05/06 00:30:55;;;;;;;5.35;4.40;;;9.50;99.90;;;;;;7375305;19;20324;-76
2022/05/06 00:33:24;;;;;;;4.87;3.67;;;9.40;99.90;;;;;;7375575;19;21338;-76
2022/05/06 00:35:53;;;;;;;4.70;4.30;;;9.40;99.90;;;;;;7377110;19;20443;-76
2022/05/06 00:38:19;;;;;;;4.07;3.78;;;9.30;99.90;;;;;;7379234;19;20345;-76
2022/05/06 00:40:44;;;;;;;4.43;4.05;;;9.30;99.90;;;;;;7377536;19;20337;-76
2022/05/06 00:43:11;;;;;;;4.07;3.67;;;9.30;99.90;;;;;;7372635;19;20369;-76
2022/05/06 00:45:52;;;;;;;4.30;3.60;;;9.20;99.90;;;;;;7376022;19;20336;-76
2022/05/06 00:48:19;;;;;;;4.32;3.80;;;9.20;99.90;;;;;;7376262;19;20344;-77
2022/05/06 00:50:45;;;;;;;4.97;4.03;;;9.20;99.90;;;;;;7374595;19;20361;-76
2022/05/06 00:53:11;;;;;;;4.30;3.90;;;9.20;99.90;;;;;;7374799;19;20340;-76
2022/05/06 00:55:37;;;;;;;4.40;4.00;;;9.20;99.90;;;;;;7376018;19;20395;-76
2022/05/06 00:58:02;;;;;;;6.60;4.50;;;9.20;99.90;;;;;;7379522;19;20332;-76
2022/05/06 01:00:29;;;;;;;4.63;3.73;;;9.10;99.90;;;;;;7375332;19;20367;-76
2022/05/06 01:02:55;;;;;;;4.60;4.20;;;9.10;99.90;;;;;;7374543;19;20324;-77
2022/05/06 01:05:22;;;;;;;5.00;4.15;;;9.10;99.90;;;;;;7377992;19;20358;-76
2022/05/06 01:07:49;;;;;;;4.72;4.32;;;9.10;99.90;;;;;;7378151;19;21094;-77
2022/05/06 01:10:19;;;;;;;5.53;4.80;;;9.00;99.90;;;;;;7377091;19;20639;-76
2022/05/06 01:12:46;;;;;;;4.77;4.30;;;8.90;99.90;;;;;;7376713;19;21215;-77
2022/05/06 01:15:26;;;;;;;5.87;4.10;;;8.90;99.90;;;;;;7375736;19;20832;-77
2022/05/06 01:17:58;;;;;;;5.60;4.82;;;8.90;99.90;;;;;;7276525;19;2004242;-76
2022/05/06 01:20:24;;;;;;;5.18;4.68;;;8.80;99.90;;;;;;7374448;19;20420;-76
2022/05/06 01:22:54;;;;;;;5.10;4.60;;;8.80;99.90;;;;;;7375782;19;20355;-76
2022/05/06 01:25:20;;;;;;;4.80;4.38;;;8.80;99.90;;;;;;7374684;19;20348;-77
2022/05/06 01:27:55;;;;;;;5.68;4.70;;;8.80;99.90;;;;;;7378100;19;20347;-76
2022/05/06 01:30:37;;;;;;;4.82;4.32;;;8.80;99.90;;;;;;7372644;19;20337;-76
2022/05/06 01:33:12;;;;;;;5.15;4.65;;;8.80;99.90;;;;;;7372229;19;20383;-76
2022/05/06 01:35:57;;;;;;;5.07;4.53;;;8.80;99.90;;;;;;7367902;19;20348;-76
2022/05/06 01:38:32;;;;;;;5.35;4.85;;;8.70;99.90;;;;;;7272850;19;2004426;-77
2022/05/06 01:41:00;;;;;;;6.10;4.70;;;8.70;99.90;;;;;;7372190;19;20415;-78
2022/05/06 01:43:39;;;;;;;5.90;5.32;;;8.70;99.90;;;;;;7373748;19;20346;-77
2022/05/06 01:46:05;;;;;;;5.40;4.90;;;8.70;99.90;;;;;;7372812;19;20301;-76
2022/05/06 01:48:32;;;;;;;6.40;5.13;;;8.70;99.90;;;;;;7377072;19;20341;-77
2022/05/06 01:50:58;;;;;;;8.13;5.75;;;8.50;99.90;;;;;;7373902;19;20914;-76
2022/05/06 01:53:24;;;;;;;5.80;5.20;;;8.50;99.90;;;;;;7373324;19;20352;-77
2022/05/06 01:55:51;;;;;;;6.43;5.40;;;8.40;99.90;;;;;;7374814;19;20308;-76
2022/05/06 01:58:22;;;;;;;6.60;5.30;;;8.40;99.90;;;;;;7375418;19;20351;-76
2022/05/06 02:00:52;;;;;;;7.10;5.65;;;8.30;99.90;;;;;;7373268;19;20340;-76
2022/05/06 02:06:12;;;;;;;4.97;4.57;;;8.30;99.90;;;;;;7373935;19;20323;-76
2022/05/06 02:08:40;;;;;;;5.63;5.10;;;8.20;99.90;;;;;;7376569;19;20332;-76
2022/05/06 02:11:12;;;;;;;5.68;5.05;;;8.20;99.90;;;;;;7372687;19;20336;-77
2022/05/06 02:13:39;;;;;;;6.50;5.90;;;8.20;99.90;;;;;;7373817;19;20332;-76
2022/05/06 02:16:17;;;;;;;6.38;5.78;;;8.20;99.90;;;;;;7271245;19;2004688;-76
2022/05/06 02:19:08;;;;;;;5.20;4.57;;;8.20;99.90;;;;;;7271023;19;2004310;-76
2022/05/06 02:22:00;;;;;;;4.90;4.22;;;8.10;99.90;;;;;;7274774;19;2004601;-76
2022/05/06 02:24:41;;;;;;;5.38;4.88;;;8.10;99.90;;;;;;7270211;19;2004618;-76
2022/05/06 02:27:22;;;;;;;4.83;4.33;;;8.10;99.90;;;;;;7273386;19;2004228;-77
2022/05/06 02:35:23;;;;;;;5.70;5.20;;;8.00;99.90;;;;;;7372766;19;20844;-76
2022/05/06 02:37:50;;;;;;;5.95;5.40;;;7.90;99.90;;;;;;7373014;19;20316;-76
2022/05/06 02:40:17;;;;;;;6.35;5.30;;;8.00;99.90;;;;;;7372204;19;20336;-76
2022/05/06 02:42:43;;;;;;;6.35;5.75;;;8.00;99.90;;;;;;7372181;19;20402;-79
2022/05/06 02:45:10;;;;;;;5.57;5.00;;;8.00;99.90;;;;;;7372292;19;20380;-80
2022/05/06 02:47:37;;;;;;;5.80;5.20;;;8.00;99.90;;;;;;7376509;19;20320;-77
2022/05/06 02:50:04;;;;;;;6.83;5.50;;;8.00;99.90;;;;;;7372621;19;20347;-77
2022/05/06 02:52:31;;;;;;;5.82;5.28;;;8.00;99.90;;;;;;7372963;19;20345;-76
2022/05/06 02:54:57;;;;;;;6.60;6.00;;;8.00;99.90;;;;;;7371075;19;20324;-75
2022/05/06 02:57:23;;;;;;;8.93;7.28;;;8.00;99.90;;;;;;7373276;19;20336;-76
2022/05/06 02:59:48;;;;;;;7.72;5.32;;;7.90;99.90;;;;;;7371618;19;20342;-76
2022/05/06 03:02:21;;;;;;;6.55;5.55;;;7.80;99.90;;;;;;7374415;19;20336;-79
2022/05/06 03:04:47;;;;;;;6.38;5.78;;;7.80;99.90;;;;;;7369172;19;20357;-77
2022/05/06 03:07:16;;;;;;;6.38;5.80;;;7.80;99.90;;;;;;7372257;19;20451;-76
2022/05/06 03:09:46;;;;;;;5.70;5.18;;;7.80;99.90;;;;;;7373800;19;20336;-75
2022/05/06 03:12:15;;;;;;;6.67;5.93;;;7.80;99.90;;;;;;7373346;19;20349;-76
2022/05/06 03:14:52;;;;;;;6.43;5.82;;;7.80;99.90;;;;;;7379269;19;20344;-75
2022/05/06 03:17:26;;;;;;;6.05;5.35;;;7.70;99.90;;;;;;7383490;19;20900;-75
2022/05/06 03:19:52;;;;;;;8.17;6.53;;;7.70;99.90;;;;;;7381986;19;20313;-75
2022/05/06 03:22:18;;;;;;;6.28;5.70;;;7.70;99.90;;;;;;7374604;19;20316;-77
2022/05/06 03:24:44;;;;;;;7.63;6.93;;;7.60;99.90;;;;;;7346127;19;21217;-77
2022/05/06 03:27:59;;;;;;;7.07;6.47;;;7.50;99.90;;;;;;7369297;19;20362;-76
2022/05/06 03:29:55;;;;;;;6.13;5.53;;;7.50;99.90;;;;;;7369281;19;20307;-77
2022/05/06 03:32:22;;;;;;;9.27;6.78;;;7.50;99.90;;;;;;7386033;19;20344;-77
2022/05/06 03:34:50;;;;;;;7.53;6.83;;;7.40;99.90;;;;;;7382867;19;21420;-75
2022/05/06 03:37:16;;;;;;;7.07;6.40;;;7.20;99.90;;;;;;7385371;19;20332;-76
2022/05/06 03:39:42;;;;;;;5.82;5.28;;;7.20;99.90;;;;;;7387992;19;20411;-77
2022/05/06 03:42:08;;;;;;;6.87;6.03;;;7.20;99.90;;;;;;7389602;19;20349;-78
2022/05/06 03:44:35;;;;;;;6.38;5.72;;;7.30;99.90;;;;;;7390094;19;20335;-77
2022/05/06 03:47:01;;;;;;;6.93;6.30;;;7.30;99.90;;;;;;7388053;19;20308;-76
2022/05/06 03:49:33;;;;;;;6.50;5.90;;;7.30;99.90;;;;;;7389839;19;20307;-76
2022/05/06 03:52:00;;;;;;;7.23;5.50;;;7.30;99.90;;;;;;7385809;19;20344;-77
2022/05/06 03:54:27;;;;;;;7.03;6.33;;;7.20;99.90;;;;;;7387267;19;20356;-78
2022/05/06 03:56:52;;;;;;;6.63;5.93;;;7.30;99.90;;;;;;7386694;19;20356;-77
2022/05/06 03:59:19;;;;;;;6.20;5.60;;;7.30;99.90;;;;;;7387219;19;20336;-76
2022/05/06 04:01:50;;;;;;;6.55;5.50;;;7.40;99.90;;;;;;7383544;19;20303;-77
2022/05/06 04:04:26;;;;;;;7.43;6.32;;;7.30;99.90;;;;;;7284680;19;2004292;-77
2022/05/06 04:06:53;;;;;;;6.43;5.83;;;7.30;99.90;;;;;;7383996;19;20403;-77
2022/05/06 04:09:20;;;;;;;6.75;6.15;;;7.30;99.90;;;;;;7384812;19;20422;-77
2022/05/06 04:11:45;;;;;;;7.57;6.53;;;7.30;99.90;;;;;;7385481;19;20345;-76
2022/05/06 04:14:11;;;;;;;6.97;5.63;;;7.30;99.90;;;;;;7386561;19;20912;-77
2022/05/06 04:16:41;;;;;;;6.35;5.80;;;7.40;99.90;;;;;;7385483;19;20384;-77
2022/05/06 04:19:16;;;;;;;10.73;8.27;;;7.40;99.90;;;;;;7387673;19;20348;-77
2022/05/06 04:24:29;;;;;;;6.75;5.85;;;7.50;99.90;;;;;;7283968;19;2004443;-77
2022/05/06 04:26:55;;;;;;;6.30;5.70;;;7.50;99.90;;;;;;7392441;19;20653;-78
2022/05/06 04:29:21;;;;;;;6.57;5.50;;;7.60;99.90;;;;;;7392983;19;20328;-77
2022/05/06 04:31:50;;;;;;;5.63;5.05;;;7.70;99.90;;;;;;7393496;19;20368;-79
2022/05/06 04:34:17;;;;;;;5.68;5.07;;;7.70;99.90;;;;;;7399710;19;20312;-79
2022/05/06 04:36:43;;;;;;;6.70;5.88;;;7.80;99.90;;;;;;7397272;19;20329;-81
2022/05/06 04:39:10;;;;;;;5.65;5.13;;;8.00;99.90;;;;;;7397069;19;20347;-79
2022/05/06 04:41:43;;;;;;;7.03;5.50;;;7.90;99.90;;;;;;7397651;19;20309;-79
2022/05/06 04:44:10;;;;;;;6.30;5.70;;;8.00;99.90;;;;;;7387249;19;20352;-81
2022/05/06 04:46:36;;;;;;;7.65;6.32;;;8.00;99.90;;;;;;7377714;19;20345;-79
2022/05/06 04:49:02;;;;;;;7.45;6.13;;;8.20;99.90;;;;;;7382638;19;20335;-82
2022/05/06 04:51:29;;;;;;;8.05;6.82;;;8.30;99.90;;;;;;7382697;19;20337;-79
2022/05/06 04:53:55;;;;;;;8.02;5.80;;;8.40;99.90;;;;;;7384958;19;20325;-81
2022/05/06 04:56:22;;;;;;;6.50;5.90;;;8.50;99.90;;;;;;7383622;19;20337;-80
2022/05/06 04:58:48;;;;;;;6.70;6.00;;;8.60;99.90;;;;;;7383594;19;20349;-78
2022/05/06 05:01:22;;;;;;;10.25;6.78;;;8.70;99.90;;;;;;7379294;19;20346;-79
2022/05/06 05:03:48;;;;;;;7.70;5.97;;;8.80;99.90;;;;;;7386363;19;20313;-78
2022/05/06 05:06:13;;;;;;;7.20;6.03;;;8.80;99.90;;;;;;7382350;19;20393;-81
2022/05/06 05:08:40;;;;;;;7.33;5.87;;;9.10;99.90;;;;;;7385768;19;20329;-81
2022/05/06 05:11:06;;;;;;;6.22;5.63;;;9.00;99.90;;;;;;7384865;19;20715;-82
2022/05/06 05:13:39;;;;;;;6.63;5.70;;;9.20;99.90;;;;;;7385991;19;20397;-79
2022/05/06 05:16:08;;;;;;;8.68;6.43;;;9.30;99.90;;;;;;7370607;19;20477;-78
2022/05/06 05:18:34;;;;;;;6.60;5.88;;;9.40;99.90;;;;;;7385509;19;20397;-77
2022/05/06 05:21:01;;;;;;;7.57;6.18;;;9.50;99.90;;;;;;7388363;19;20584;-78
2022/05/06 05:23:26;;;;;;;7.30;6.03;;;9.60;99.90;;;;;;7390730;19;20325;-77
2022/05/06 05:25:52;;;;;;;6.97;6.15;;;9.60;99.90;;;;;;7386113;19;20312;-76
2022/05/06 05:28:17;;;;;;;8.67;6.30;;;9.80;99.90;;;;;;7388393;19;20313;-77
2022/05/06 05:30:43;;;;;;;8.57;6.20;;;9.90;99.90;;;;;;7386387;19;20689;-78
2022/05/06 05:33:09;;;;;;;8.02;6.53;;;10.00;99.90;;;;;;7386545;19;20403;-77
2022/05/06 05:35:40;;;;;;;7.57;6.50;;;10.10;99.90;;;;;;7384433;19;21085;-79
2022/05/06 05:38:09;;;;;;;7.67;5.93;;;10.30;99.90;;;;;;7386570;19;20352;-77
2022/05/06 05:40:36;;;;;;;6.60;5.35;;;10.40;99.90;;;;;;7385373;19;20361;-78
2022/05/06 05:43:03;;;;;;;6.80;5.45;;;10.50;99.90;;;;;;7387225;19;20324;-77
2022/05/06 05:48:19;;;;;;;7.10;5.30;;;10.90;99.90;;;;;;7386783;19;20771;-77
2022/05/06 05:50:48;;;;;;;6.90;5.32;;;11.00;99.90;;;;;;7385406;19;20357;-77
2022/05/06 05:53:16;;;;;;;8.85;5.72;;;11.20;99.90;;;;;;7383671;19;20368;-78
2022/05/06 05:55:43;;;;;;;6.18;5.20;;;11.30;99.90;;;;;;7385329;19;20325;-77
2022/05/06 05:58:13;;;;;;;5.68;5.03;;;11.50;99.90;;;;;;7383595;19;20337;-77
2022/05/06 06:00:40;;;;;;;5.40;4.90;;;11.60;99.90;;;;;;7385928;19;21205;-76
2022/05/06 06:03:06;;;;;;;5.40;4.90;;;11.80;99.90;;;;;;7374833;19;20336;-73
2022/05/06 06:05:37;;;;;;;6.13;4.95;;;11.90;99.90;;;;;;7373332;19;20455;-76
2022/05/06 06:08:03;;;;;;;5.13;4.50;;;12.10;99.90;;;;;;7375169;19;20316;-75
2022/05/06 06:10:29;;;;;;;5.50;4.78;;;12.20;99.90;;;;;;7379080;19;20340;-77
2022/05/06 06:13:04;;;;;;;6.25;5.00;;;12.40;99.90;;;;;;7382107;19;20303;-78
2022/05/06 06:15:30;;;;;;;6.60;4.30;;;12.60;99.90;;;;;;7374309;19;20384;-78
2022/05/06 06:17:56;;;;;;;4.78;3.83;;;12.80;99.90;;;;;;7374560;19;20345;-77
2022/05/06 06:20:23;;;;;;;6.80;4.10;;;13.00;99.90;;;;;;7376551;19;20984;-76
2022/05/06 06:22:50;;;;;;;4.20;3.50;;;13.10;99.90;;;;;;7376775;19;20325;-77
2022/05/06 06:25:16;;;;;;;4.30;3.60;;;13.20;99.90;;;;;;7372619;19;20353;-76
2022/05/06 06:27:43;;;;;;;4.93;3.53;;;13.40;99.90;;;;;;7378394;19;20332;-76
2022/05/06 06:30:11;;;;;;;4.78;3.10;;;13.60;99.90;;;;;;7373977;19;20304;-78
2022/05/06 06:32:36;;;;;;;3.78;3.10;;;13.80;99.90;;;;;;7376789;19;20458;-77
2022/05/06 06:35:05;;;;;;;3.22;2.95;;;13.90;99.90;;;;;;7374720;19;20395;-78
2022/05/06 06:37:39;;;;;;;3.72;3.20;;;14.10;99.90;;;;;;7376823;19;20333;-76
2022/05/06 06:40:06;;;;;;;5.80;3.50;;;14.40;99.90;;;;;;7373130;19;20350;-77
2022/05/06 06:42:32;;;;;;;4.57;3.28;;;14.50;99.90;;;;;;7374880;19;20904;-77
2022/05/06 06:45:13;;;;;;;3.60;3.23;;;14.70;99.90;;;;;;7371512;19;20359;-77
2022/05/06 06:47:57;;;;;;;3.42;3.13;;;14.80;99.90;;;;;;7376937;19;20323;-77
2022/05/06 06:50:55;;;;;;;3.08;2.78;;;14.90;99.90;;;;;;7271613;19;2004575;-77
2022/05/06 06:53:27;;;;;;;4.85;2.97;;;15.10;99.90;;;;;;7379122;19;20391;-77
2022/05/06 06:55:53;;;;;;;5.10;2.87;;;15.20;99.90;;;;;;7371276;19;20388;-77
2022/05/06 06:58:19;;;;;;;5.97;3.10;;;15.30;99.90;;;;;;7374496;19;20852;-77
2022/05/06 07:00:44;;;;;;;5.00;3.08;;;15.40;99.90;;;;;;7375039;19;20312;-77
2022/05/06 07:03:13;;;;;;;6.13;2.40;;;15.70;99.90;;;;;;7376747;19;20380;-77
2022/05/06 07:13:52;;;;;;;4.20;2.63;;;16.40;99.90;;;;;;7376620;19;20387;-77
2022/05/06 07:16:17;;;;;;;3.20;2.50;;;16.50;99.90;;;;;;7371886;19;20919;-77
2022/05/06 07:18:43;;;;;;;3.67;2.70;;;16.50;99.90;;;;;;7377010;19;20320;-77
2022/05/06 07:21:08;;;;;;;3.07;2.67;;;16.60;99.90;;;;;;7374651;19;20340;-77
2022/05/06 07:23:34;;;;;;;3.40;2.53;;;16.60;99.90;;;;;;7374396;19;21005;-77
2022/05/06 07:26:00;;;;;;;3.10;2.80;;;16.70;99.90;;;;;;7373650;19;20343;-77
2022/05/06 07:28:26;;;;;;;3.73;2.73;;;16.80;99.90;;;;;;7375131;19;20424;-79
2022/05/06 07:30:51;;;;;;;4.20;2.88;;;17.00;99.90;;;;;;7374365;19;20327;-78
2022/05/06 07:33:17;;;;;;;2.53;2.33;;;17.10;99.90;;;;;;7376073;19;20312;-77
2022/05/06 07:35:42;;;;;;;3.45;2.63;;;17.50;99.90;;;;;;7371472;19;20361;-78
2022/05/06 07:38:08;;;;;;;3.53;2.53;;;17.90;99.90;;;;;;7378712;19;20349;-77
2022/05/06 07:40:34;;;;;;;5.37;2.63;;;18.10;99.90;;;;;;7377890;19;20420;-78
2022/05/06 07:43:00;;;;;;;7.25;2.95;;;18.30;99.90;;;;;;7376912;19;20396;-76
2022/05/06 07:45:25;;;;;;;3.60;3.30;;;18.60;99.90;;;;;;7374696;19;20380;-75
2022/05/06 07:47:51;;;;;;;4.10;3.13;;;18.20;99.90;;;;;;7376446;19;20331;-75
2022/05/06 07:50:16;;;;;;;3.57;2.77;;;17.80;99.90;;;;;;7373117;19;20316;-76
2022/05/06 07:52:42;;;;;;;3.45;3.00;;;17.90;99.90;;;;;;7376234;19;20742;-75
2022/05/06 07:55:10;;;;;;;5.65;3.10;;;17.90;99.90;;;;;;7372055;19;20348;-75
2022/05/06 07:57:36;;;;;;;4.00;2.50;;;18.10;99.90;;;;;;7376209;19;20359;-76
2022/05/06 08:00:03;;;;;;;3.55;2.40;;;18.40;99.90;;;;;;7374857;19;20316;-76
2022/05/06 08:05:26;;;;;;;5.32;2.95;;;18.00;99.90;;;;;;7374783;19;20375;-75
2022/05/06 08:07:51;;;;;;;4.22;2.70;;;17.50;99.90;;;;;;7375406;19;20349;-76
2022/05/06 08:10:17;;;;;;;3.50;2.88;;;17.90;99.90;;;;;;7371941;19;20361;-76
2022/05/06 08:12:42;;;;;;;5.07;2.53;;;18.10;99.90;;;;;;7375731;19;20324;-76
2022/05/06 08:15:08;;;;;;;3.50;2.30;;;18.50;99.90;;;;;;7372338;19;20902;-75
2022/05/06 08:17:34;;;;;;;2.72;1.95;;;19.00;99.90;;;;;;7373075;19;20337;-77
2022/05/06 08:20:00;;;;;;;3.30;2.30;;;19.30;99.90;;;;;;7380379;19;20329;-76
2022/05/06 08:22:27;;;;;;;3.65;2.30;;;19.30;99.90;;;;;;7380669;19;20343;-76
2022/05/06 08:24:53;;;;;;;2.28;1.90;;;19.60;99.90;;;;;;7380323;19;21224;-77
2022/05/06 08:27:18;;;;;;;2.92;2.22;;;19.70;99.90;;;;;;7380050;19;20345;-74
2022/05/06 08:29:44;;;;;;;5.30;2.10;;;19.90;99.90;;;;;;7380226;19;20340;-77
2022/05/06 08:32:10;;;;;;;2.50;1.93;;;20.30;99.90;;;;;;7380531;19;20348;-76
2022/05/06 08:34:36;;;;;;;2.47;2.27;;;20.70;99.90;;;;;;7378890;19;20336;-75
2022/05/06 08:37:01;;;;;;;2.10;1.90;;;20.80;99.70;;;;;;7380833;19;20325;-76
2022/05/06 08:39:27;;;;;;;3.17;2.20;;;20.50;99.10;;;;;;7381477;19;20349;-76
2022/05/06 08:41:54;;;;;;;1.98;1.65;;;20.50;99.90;;;;;;7377900;19;20320;-76
2022/05/06 08:52:35;;;;;;;2.05;1.55;;;21.00;96.60;;;;;;7382846;19;20471;-76
2022/05/06 08:55:04;;;;;;;2.40;1.60;;;20.40;93.30;;;;;;7377106;19;20319;-77
2022/05/06 08:57:30;;;;;;;1.90;1.40;;;20.00;94.60;;;;;;7379579;19;20332;-77
2022/05/06 08:59:56;;;;;;;2.88;1.80;;;20.20;95.90;;;;;;7381605;19;20326;-76
2022/05/06 09:02:21;;;;;;;2.00;1.43;;;20.30;94.50;;;;;;7383621;19;20743;-77
2022/05/06 09:04:47;;;;;;;2.88;1.75;;;20.70;98.60;;;;;;7378545;19;20352;-76
2022/05/06 09:07:24;;;;;;;2.22;1.80;;;20.70;92.20;;;;;;7378927;19;20344;-76
2022/05/06 09:10:14;;;;;;;1.88;1.42;;;21.10;92.60;;;;;;7383512;19;20324;-75
2022/05/06 09:12:41;;;;;;;1.48;1.10;;;21.10;92.70;;;;;;7277531;19;2004160;-76
2022/05/06 09:17:51;;;;;;;2.30;1.40;;;21.30;92.00;;;;;;7278513;19;2004505;-76
2022/05/06 09:20:20;;;;;;;2.40;1.40;;;21.10;91.10;;;;;;7378748;19;20321;-76
2022/05/06 09:22:47;;;;;;;2.75;1.20;;;20.60;87.70;;;;;;7383128;19;20352;-76
2022/05/06 09:25:39;;;;;;;1.50;1.30;;;21.00;91.10;;;;;;7379985;19;20326;-75
2022/05/06 09:28:06;;;;;;;1.60;1.20;;;21.30;88.90;;;;;;7274729;19;2004478;-75
2022/05/06 09:30:32;;;;;;;1.25;1.23;;;21.30;88.30;;;;;;7380780;19;20345;-76
2022/05/06 09:32:58;;;;;;;1.23;1.13;;;21.20;87.60;;;;;;7378738;19;20341;-76
2022/05/06 09:35:32;;;;;;;1.55;1.25;;;21.10;86.70;;;;;;7379919;19;20340;-76
2022/05/06 09:38:02;;;;;;;1.10;1.10;;;21.20;86.70;;;;;;7379712;19;20416;-76
2022/05/06 09:40:28;;;;;;;1.73;1.07;;;21.70;88.40;;;;;;7376666;19;20367;-76
2022/05/06 09:42:53;;;;;;;1.15;1.08;;;21.40;82.80;;;;;;7377647;19;20412;-77
2022/05/06 09:45:28;;;;;;;3.13;1.20;;;21.40;85.20;;;;;;7377751;19;20383;-76
2022/05/06 09:47:58;;;;;;;1.05;1.05;;;21.10;79.80;;;;;;7379191;19;20320;-77
2022/05/06 09:50:34;;;;;;;1.30;1.10;;;21.40;82.50;;;;;;7379812;19;20313;-76
2022/05/06 09:53:03;;;;;;;0.93;0.93;;;22.00;80.70;;;;;;7379715;19;20308;-76
2022/05/06 09:55:29;;;;;;;1.75;0.70;;;22.20;77.90;;;;;;7379108;19;20880;-75
2022/05/06 09:57:59;;;;;;;1.10;0.93;;;23.20;84.40;;;;;;7381562;19;20317;-77
2022/05/06 10:00:25;;;;;;;2.53;0.80;;;23.10;70.00;;;;;;7380228;19;23975;-76
2022/05/06 10:02:50;;;;;;;1.55;0.90;;;23.40;74.70;;;;;;7378792;19;20344;-76
2022/05/06 10:05:16;;;;;;;2.10;1.10;;;23.60;76.70;;;;;;7380176;19;20324;-76
2022/05/06 10:07:43;;;;;;;0.90;0.90;;;23.60;72.20;;;;;;7383845;19;20341;-75
2022/05/06 10:10:12;;;;;;;0.98;0.90;;;23.40;71.60;;;;;;7378781;19;20386;-76
2022/05/06 10:12:40;;;;;;;2.10;1.00;;;23.50;73.90;;;;;;7380572;19;20344;-77
2022/05/06 10:15:08;;;;;;;1.15;1.00;;;24.00;75.50;;;;;;7381188;19;20349;-76
2022/05/06 10:17:56;;;;;;;1.70;1.00;;;24.60;73.10;;;;;;7381419;19;20340;-77
2022/05/06 10:20:34;;;;;;;1.05;0.95;;;25.60;72.10;;;;;;7274775;19;2004560;-77
2022/05/06 10:23:11;;;;;;;0.70;0.70;;;25.60;64.40;;;;;;7277804;19;2004586;-76
2022/05/06 10:25:40;;;;;;;1.87;1.10;;;25.40;66.30;;;;;;7277701;19;2004493;-76
2022/05/06 10:34:10;;;;;;;0.88;0.88;;;24.70;66.40;;;;;;7277468;19;2004354;-76
2022/05/06 10:36:45;;;;;;;1.20;1.10;;;23.90;66.30;;;;;;7381309;19;20338;-77
2022/05/06 10:39:20;;;;;;;0.80;0.80;;;23.90;64.90;;;;;;7383084;19;20309;-77
2022/05/06 10:42:12;;;;;;;4.05;1.08;;;23.80;65.80;;;;;;7375008;19;21007;-75
2022/05/06 10:44:38;;;;;;;0.90;0.90;;;23.10;65.30;;;;;;7276269;19;2005256;-77
2022/05/06 10:47:42;;;;;;;2.33;1.15;;;22.70;65.10;;;;;;7381836;19;20338;-77
2022/05/06 10:50:15;;;;;;;0.93;0.90;;;23.40;68.20;;;;;;7277388;19;2004314;-76
2022/05/06 10:52:41;;;;;;;0.98;0.98;;;23.90;65.50;;;;;;7379067;19;20829;-77
2022/05/06 10:55:07;;;;;;;1.70;1.10;;;24.50;66.10;;;;;;7379337;19;20384;-76
2022/05/06 10:57:44;;;;;;;0.90;0.90;;;25.00;66.10;;;;;;7379185;19;22302;-77
2022/05/06 11:00:10;;;;;;;0.90;0.90;;;25.20;67.30;;;;;;7380656;19;20329;-77
2022/05/06 11:02:38;;;;;;;1.15;1.05;;;25.50;62.80;;;;;;7377001;19;20324;-78
2022/05/06 11:05:11;;;;;;;0.80;0.80;;;26.00;63.20;;;;;;7378395;19;20305;-77
2022/05/06 11:07:38;;;;;;;1.00;0.82;;;25.80;59.70;;;;;;7380941;19;20296;-79
2022/05/06 11:10:30;;;;;;;0.80;0.80;;;25.80;60.80;;;;;;7377998;19;20333;-77
2022/05/06 11:12:59;;;;;;;0.70;0.70;;;25.80;61.10;;;;;;7277379;19;2004329;-76
2022/05/06 11:15:27;;;;;;;1.80;1.00;;;25.70;60.00;;;;;;7355912;19;20440;-77
2022/05/06 11:17:55;;;;;;;1.98;0.95;;;23.80;57.60;;;;;;7382442;19;20336;-77
2022/05/06 11:20:31;;;;;;;0.80;0.80;;;24.20;60.10;;;;;;7378316;19;20351;-76
2022/05/06 11:23:04;;;;;;;0.88;0.88;;;23.40;62.00;;;;;;7375602;19;20329;-79
2022/05/06 11:25:37;;;;;;;0.73;0.73;;;24.20;61.60;;;;;;7280040;19;2004207;-78
2022/05/06 11:28:24;;;;;;;0.80;0.80;;;25.20;64.40;;;;;;7378011;19;20376;-76
2022/05/06 11:30:50;;;;;;;1.10;1.00;;;26.10;58.30;;;;;;7269591;19;2004543;-77
2022/05/06 11:33:27;;;;;;;2.30;1.00;;;26.60;58.40;;;;;;7377219;19;20357;-76
2022/05/06 11:36:03;;;;;;;1.00;1.00;;;26.70;57.20;;;;;;7379813;19;20338;-76
2022/05/06 11:38:36;;;;;;;1.60;1.20;;;27.40;56.90;;;;;;7383075;19;20363;-78
2022/05/06 11:41:11;;;;;;;0.90;0.90;;;26.20;56.10;;;;;;7359102;19;20328;-76
2022/05/06 11:43:37;;;;;;;1.10;1.00;;;24.90;51.40;;;;;;7376672;19;20336;-76
2022/05/06 11:48:47;;;;;;;1.35;0.90;;;25.30;57.00;;;;;;7279153;19;2004338;-78
2022/05/06 11:51:25;;;;;;;1.20;1.00;;;25.40;56.10;;;;;;7379669;19;20571;-76
2022/05/06 11:53:51;;;;;;;2.47;1.27;;;26.10;58.00;;;;;;7279938;19;2019019;-78
2022/05/06 11:56:23;;;;;;;3.27;1.23;;;26.10;53.80;;;;;;7383147;19;20339;-76
2022/05/06 11:58:50;;;;;;;1.07;0.97;;;25.40;52.60;;;;;;7390157;19;20328;-77
2022/05/06 12:01:28;;;;;;;1.03;0.93;;;25.60;55.60;;;;;;7388407;19;20324;-76
2022/05/06 12:03:58;;;;;;;1.20;1.10;;;25.80;56.20;;;;;;7284765;19;2004507;-77
2022/05/06 12:06:27;;;;;;;1.13;1.02;;;25.70;55.10;;;;;;7387383;19;20948;-76
2022/05/06 12:09:06;;;;;;;2.55;1.20;;;25.20;55.90;;;;;;7389875;19;20324;-77
2022/05/06 12:11:32;;;;;;;0.90;0.90;;;24.20;52.80;;;;;;7386411;19;20399;-77
2022/05/06 12:14:05;;;;;;;1.10;1.00;;;24.70;54.60;;;;;;7387252;19;21260;-77
2022/05/06 12:16:31;;;;;;;0.90;0.90;;;25.00;53.60;;;;;;7386264;19;20304;-76
2022/05/06 12:18:58;;;;;;;1.00;1.00;;;25.70;52.80;;;;;;7387807;19;20331;-76
2022/05/06 12:21:27;;;;;;;0.93;0.93;;;26.10;58.40;;;;;;7386369;19;20332;-75
2022/05/06 12:23:57;;;;;;;1.75;1.05;;;26.30;53.90;;;;;;7387287;19;20316;-77
2022/05/06 12:26:27;;;;;;;1.15;1.08;;;26.50;53.40;;;;;;7388587;19;20348;-77
2022/05/06 12:28:53;;;;;;;0.90;0.90;;;25.40;52.10;;;;;;7389873;19;20331;-76
2022/05/06 12:31:25;;;;;;;2.00;1.00;;;25.00;53.90;;;;;;7390648;19;20317;-76
2022/05/06 12:33:59;;;;;;;3.00;1.15;;;24.10;54.30;;;;;;7393643;19;20313;-76
2022/05/06 12:36:24;;;;;;;1.20;0.90;;;24.60;57.40;;;;;;7292942;19;2006506;-77
2022/05/06 12:38:51;;;;;;;1.17;0.90;;;25.30;57.60;;;;;;7393231;19;20315;-79
2022/05/06 12:41:25;;;;;;;2.20;1.00;;;25.90;57.30;;;;;;7388138;19;20320;-77
2022/05/06 12:43:51;;;;;;;1.20;0.90;;;27.20;57.60;;;;;;7389831;19;20354;-77
2022/05/06 12:46:27;;;;;;;2.20;1.40;;;27.50;53.80;;;;;;7390913;19;20335;-76
2022/05/06 12:51:39;;;;;;;1.13;1.02;;;26.50;51.20;;;;;;7287227;19;2004340;-76
2022/05/06 12:54:05;;;;;;;1.42;1.02;;;26.90;53.60;;;;;;7389293;19;20325;-76
2022/05/06 12:56:30;;;;;;;1.20;1.10;;;27.40;52.90;;;;;;7381521;19;20348;-77
2022/05/06 12:58:56;;;;;;;0.80;0.80;;;28.80;53.50;;;;;;7388235;19;20351;-76
2022/05/06 13:01:22;;;;;;;1.05;1.05;;;30.10;52.90;;;;;;7382676;19;20956;-78
2022/05/06 13:03:48;;;;;;;2.90;1.00;;;28.20;47.20;;;;;;7382820;19;20416;-77
2022/05/06 13:06:14;;;;;;;1.70;1.08;;;27.80;50.80;;;;;;7386907;19;20312;-77
2022/05/06 13:08:39;;;;;;;5.40;1.60;;;27.60;51.10;;;;;;7390473;19;20352;-76
2022/05/06 13:11:05;;;;;;;1.52;1.10;;;27.50;50.90;;;;;;7387445;19;20868;-75
2022/05/06 13:13:30;;;;;;;1.05;0.98;;;27.00;51.00;;;;;;7384122;19;20399;-76
2022/05/06 13:15:58;;;;;;;0.90;0.90;;;26.90;51.90;;;;;;7381644;19;20337;-76
2022/05/06 13:18:23;;;;;;;1.02;1.02;;;27.00;53.00;;;;;;7385207;19;20396;-75
2022/05/06 13:20:49;;;;;;;1.23;0.95;;;26.70;52.10;;;;;;7383388;19;20443;-76
2022/05/06 13:23:14;;;;;;;1.50;1.00;;;24.60;51.00;;;;;;7385355;19;21023;-76
2022/05/06 13:25:40;;;;;;;0.80;0.80;;;25.00;53.50;;;;;;7384012;19;20308;-75
2022/05/06 13:28:05;;;;;;;1.20;0.90;;;25.40;52.80;;;;;;7385370;19;20986;-76
2022/05/06 13:30:31;;;;;;;3.20;1.00;;;26.10;54.90;;;;;;7380259;19;20349;-75
2022/05/06 13:32:57;;;;;;;1.08;1.00;;;26.20;53.90;;;;;;7381941;19;20369;-75
2022/05/06 13:35:24;;;;;;;1.20;1.10;;;26.40;54.30;;;;;;7379709;19;20338;-75
2022/05/06 13:37:50;;;;;;;1.00;1.00;;;26.40;53.80;;;;;;7386994;19;20380;-75
2022/05/06 13:40:16;;;;;;;1.85;1.33;;;26.20;53.90;;;;;;7384293;19;21058;-74
2022/05/06 13:42:41;;;;;;;1.58;1.30;;;26.20;53.80;;;;;;7381495;19;20435;-75
2022/05/06 13:45:07;;;;;;;1.23;1.13;;;26.70;54.50;;;;;;7379135;19;20333;-75